Time;durP1;ratioP1;P1;durP2;ratioP2;P2;SDS_P1;SDS_P2;PMS_P1;PMS_P2;Temp;Humidity;BMP_temperature;BMP_pressure;BME280_temperature;BME280_humidity;BME280_pressure;Samples;Min_cycle;Max_cycle;Signal;HPM_P1;HPM_P2
2022/08/06 00:01:56;;;;;;;1.90;1.80;;;19.80;99.90;;;;;;5009373;28;21430;-68
2022/08/06 00:04:23;;;;;;;3.77;1.73;;;19.80;99.90;;;;;;5008907;28;20892;-67
2022/08/06 00:06:50;;;;;;;1.80;1.70;;;19.80;99.90;;;;;;5009432;28;20489;-68
2022/08/06 00:09:17;;;;;;;2.10;1.90;;;19.80;99.90;;;;;;5009046;28;20882;-68
2022/08/06 00:11:45;;;;;;;1.57;1.47;;;19.70;99.90;;;;;;5009113;28;20470;-68
2022/08/06 00:14:11;;;;;;;1.63;1.53;;;19.70;99.90;;;;;;5008887;28;20525;-69
2022/08/06 00:16:38;;;;;;;1.93;1.60;;;19.70;99.90;;;;;;5009146;28;20557;-68
2022/08/06 00:19:05;;;;;;;1.70;1.60;;;19.70;99.90;;;;;;5011229;28;20464;-67
2022/08/06 00:21:32;;;;;;;2.13;1.70;;;19.70;99.90;;;;;;5012664;28;21022;-68
2022/08/06 00:23:59;;;;;;;2.63;1.67;;;19.80;99.90;;;;;;5012044;28;20469;-67
2022/08/06 00:26:25;;;;;;;1.70;1.43;;;19.80;99.90;;;;;;5012612;28;20501;-66
2022/08/06 00:28:53;;;;;;;1.70;1.60;;;19.80;99.90;;;;;;5012232;28;20482;-68
2022/08/06 00:31:21;;;;;;;2.00;1.77;;;19.80;99.90;;;;;;5012623;28;20466;-68
2022/08/06 00:33:47;;;;;;;1.60;1.50;;;19.80;99.90;;;;;;5012102;28;20564;-68
2022/08/06 00:36:14;;;;;;;2.73;1.53;;;19.80;99.90;;;;;;5012340;28;20577;-68
2022/08/06 00:38:41;;;;;;;2.10;1.70;;;19.80;99.90;;;;;;5011804;28;20472;-67
2022/08/06 00:41:08;;;;;;;1.70;1.60;;;19.80;99.90;;;;;;5012296;28;20471;-68
2022/08/06 00:43:35;;;;;;;2.40;1.57;;;19.80;99.90;;;;;;5011697;28;20493;-66
2022/08/06 00:46:03;;;;;;;1.90;1.80;;;19.80;99.90;;;;;;5012407;28;20498;-67
2022/08/06 00:48:30;;;;;;;2.00;1.90;;;19.80;99.90;;;;;;5011543;28;20550;-67
2022/08/06 00:50:56;;;;;;;2.03;1.87;;;19.80;99.90;;;;;;5012026;28;20466;-68
2022/08/06 00:53:23;;;;;;;2.53;1.80;;;19.80;99.90;;;;;;5023605;28;20471;-68
2022/08/06 00:55:50;;;;;;;2.17;1.77;;;19.80;99.90;;;;;;5031847;28;20477;-68
2022/08/06 00:58:17;;;;;;;2.10;1.50;;;19.70;99.90;;;;;;5031796;28;20467;-67
2022/08/06 01:00:43;;;;;;;1.80;1.50;;;19.70;99.90;;;;;;5031320;28;20739;-68
2022/08/06 01:03:12;;;;;;;1.60;1.50;;;19.70;99.90;;;;;;5032174;28;20477;-68
2022/08/06 01:05:38;;;;;;;1.70;1.40;;;19.70;99.90;;;;;;5030671;28;20464;-67
2022/08/06 01:08:05;;;;;;;1.90;1.80;;;19.70;99.90;;;;;;5031802;28;20485;-68
2022/08/06 01:10:32;;;;;;;2.83;1.80;;;19.70;99.90;;;;;;5031164;28;20490;-68
2022/08/06 01:12:59;;;;;;;1.37;1.27;;;19.70;99.90;;;;;;5031243;28;20476;-67
2022/08/06 01:15:25;;;;;;;3.10;1.70;;;19.60;99.90;;;;;;5030662;28;20491;-67
2022/08/06 01:17:58;;;;;;;1.60;1.50;;;19.60;99.90;;;;;;5031444;28;20488;-67
2022/08/06 01:20:42;;;;;;;1.80;1.50;;;19.60;99.90;;;;;;5031315;28;20461;-68
2022/08/06 01:23:24;;;;;;;1.50;1.27;;;19.60;99.90;;;;;;5031417;28;20476;-68
2022/08/06 01:26:13;;;;;;;2.23;1.73;;;19.60;99.90;;;;;;5031245;28;20472;-68
2022/08/06 01:28:47;;;;;;;2.00;1.87;;;19.60;99.90;;;;;;5030598;28;20488;-66
2022/08/06 01:31:20;;;;;;;2.13;1.87;;;19.50;99.90;;;;;;5030810;28;20914;-68
2022/08/06 01:33:52;;;;;;;1.67;1.50;;;19.50;99.90;;;;;;5030123;28;20470;-68
2022/08/06 01:36:24;;;;;;;1.50;1.30;;;19.50;99.90;;;;;;5031286;28;20878;-66
2022/08/06 01:38:53;;;;;;;1.47;1.37;;;19.50;99.90;;;;;;5030489;28;20457;-67
2022/08/06 01:44:21;;;;;;;1.70;1.50;;;19.40;99.90;;;;;;5086371;27;20555;-68
2022/08/06 01:46:51;;;;;;;1.97;1.70;;;19.40;99.90;;;;;;5076708;28;21002;-67
2022/08/06 01:49:23;;;;;;;3.90;1.77;;;19.40;99.90;;;;;;5066896;28;20460;-68
2022/08/06 01:51:52;;;;;;;1.60;1.50;;;19.40;99.90;;;;;;5066952;28;20459;-68
2022/08/06 01:54:21;;;;;;;1.50;1.40;;;19.40;99.90;;;;;;5066435;28;20455;-68
2022/08/06 01:56:53;;;;;;;1.63;1.30;;;19.40;99.90;;;;;;5066539;28;20480;-68
2022/08/06 01:59:25;;;;;;;1.50;1.40;;;19.40;99.90;;;;;;5066784;28;20882;-68
2022/08/06 02:01:55;;;;;;;1.40;1.23;;;19.40;99.90;;;;;;5066454;28;20469;-68
2022/08/06 02:04:26;;;;;;;3.50;1.80;;;19.30;99.90;;;;;;5066024;28;20463;-67
2022/08/06 02:06:54;;;;;;;1.90;1.80;;;19.30;99.90;;;;;;5066368;28;20866;-66
2022/08/06 02:09:23;;;;;;;1.40;1.30;;;19.20;99.90;;;;;;5066560;28;20471;-67
2022/08/06 02:11:55;;;;;;;1.77;1.60;;;19.20;99.90;;;;;;5066242;28;21021;-67
2022/08/06 02:14:25;;;;;;;1.50;1.40;;;19.20;99.90;;;;;;5065854;28;20462;-68
2022/08/06 02:16:54;;;;;;;1.90;1.60;;;19.20;99.90;;;;;;5066448;28;20478;-67
2022/08/06 02:19:23;;;;;;;1.53;1.43;;;19.20;99.90;;;;;;5066067;28;20528;-66
2022/08/06 02:21:52;;;;;;;1.63;1.40;;;19.20;99.90;;;;;;5066393;28;20467;-68
2022/08/06 02:24:19;;;;;;;1.50;1.40;;;19.10;99.90;;;;;;5065435;28;20490;-67
2022/08/06 02:26:47;;;;;;;1.67;1.57;;;19.10;99.90;;;;;;5065922;28;20482;-67
2022/08/06 02:29:17;;;;;;;1.60;1.50;;;19.10;99.90;;;;;;5065877;28;20467;-67
2022/08/06 02:31:46;;;;;;;3.07;1.40;;;19.00;99.90;;;;;;5065913;28;20456;-68
2022/08/06 02:34:13;;;;;;;1.67;1.43;;;19.00;99.90;;;;;;5065431;28;20888;-67
2022/08/06 02:36:42;;;;;;;2.20;1.63;;;19.00;99.90;;;;;;5079701;22;20491;-68
2022/08/06 02:39:14;;;;;;;1.40;1.30;;;19.00;99.90;;;;;;5065569;28;20864;-69
2022/08/06 02:41:44;;;;;;;1.70;1.60;;;19.00;99.90;;;;;;5064968;28;20951;-69
2022/08/06 02:44:17;;;;;;;2.83;1.50;;;19.00;99.90;;;;;;5065031;28;20881;-68
2022/08/06 02:46:49;;;;;;;1.97;1.50;;;19.00;99.90;;;;;;5064910;28;20491;-68
2022/08/06 02:49:21;;;;;;;1.50;1.40;;;19.00;99.90;;;;;;5065339;28;20471;-69
2022/08/06 02:51:53;;;;;;;1.67;1.57;;;18.90;99.90;;;;;;5065133;28;20474;-68
2022/08/06 02:54:23;;;;;;;1.50;1.40;;;18.90;99.90;;;;;;5058692;28;20460;-68
2022/08/06 02:56:55;;;;;;;1.60;1.40;;;18.90;99.90;;;;;;5052120;28;20491;-68
2022/08/06 02:59:27;;;;;;;2.20;1.30;;;18.90;99.90;;;;;;5051685;28;20991;-69
2022/08/06 03:02:00;;;;;;;3.57;1.87;;;18.80;99.90;;;;;;5050869;28;20487;-68
2022/08/06 03:04:30;;;;;;;1.83;1.23;;;18.80;99.90;;;;;;5050846;28;20496;-69
2022/08/06 03:06:59;;;;;;;1.53;1.43;;;18.80;99.90;;;;;;5052007;28;20488;-68
2022/08/06 03:09:26;;;;;;;1.60;1.50;;;18.70;99.90;;;;;;5051218;28;20468;-68
2022/08/06 03:11:53;;;;;;;2.67;1.70;;;18.70;99.90;;;;;;5052504;28;20464;-68
2022/08/06 03:14:22;;;;;;;1.77;1.47;;;18.70;99.90;;;;;;5051217;28;20471;-68
2022/08/06 03:16:50;;;;;;;1.60;1.50;;;18.70;99.90;;;;;;5052020;28;20480;-68
2022/08/06 03:19:20;;;;;;;1.93;1.60;;;18.70;99.90;;;;;;5051921;28;20464;-68
2022/08/06 03:21:48;;;;;;;1.90;1.80;;;18.70;99.90;;;;;;5051702;28;21001;-68
2022/08/06 03:24:16;;;;;;;1.50;1.40;;;18.70;99.90;;;;;;5051430;28;20494;-68
2022/08/06 03:26:43;;;;;;;1.73;1.63;;;18.70;99.90;;;;;;5051165;28;20475;-68
2022/08/06 03:29:11;;;;;;;1.70;1.60;;;18.60;99.90;;;;;;5051930;28;20468;-68
2022/08/06 03:31:38;;;;;;;2.13;1.50;;;18.60;99.90;;;;;;5051182;28;20982;-68
2022/08/06 03:34:06;;;;;;;1.63;1.53;;;18.60;99.90;;;;;;5051529;28;20463;-68
2022/08/06 03:36:35;;;;;;;1.70;1.60;;;18.60;99.90;;;;;;5050675;28;20542;-68
2022/08/06 03:39:07;;;;;;;1.97;1.50;;;18.60;99.90;;;;;;5051764;28;20464;-68
2022/08/06 03:41:36;;;;;;;2.13;1.70;;;18.60;99.90;;;;;;5051406;28;20472;-68
2022/08/06 03:44:03;;;;;;;2.70;1.47;;;18.50;99.90;;;;;;5051489;28;20495;-68
2022/08/06 03:46:34;;;;;;;2.27;1.43;;;18.60;99.90;;;;;;5051082;28;20484;-68
2022/08/06 03:49:05;;;;;;;2.13;1.37;;;18.50;99.90;;;;;;5051590;28;20835;-67
2022/08/06 03:51:36;;;;;;;1.47;1.30;;;18.50;99.90;;;;;;5051110;28;20468;-68
2022/08/06 03:54:05;;;;;;;4.27;1.90;;;18.50;99.90;;;;;;5051033;28;20456;-69
2022/08/06 03:56:33;;;;;;;1.70;1.60;;;18.50;99.90;;;;;;5050813;28;20487;-69
2022/08/06 03:59:05;;;;;;;1.60;1.50;;;18.50;99.90;;;;;;5051161;28;20464;-68
2022/08/06 04:01:35;;;;;;;2.13;1.87;;;18.40;99.90;;;;;;5050896;28;20485;-69
2022/08/06 04:04:03;;;;;;;1.67;1.57;;;18.40;99.90;;;;;;5050921;28;20491;-68
2022/08/06 04:06:31;;;;;;;3.20;2.00;;;18.40;99.90;;;;;;5049099;28;20480;-68
2022/08/06 04:09:01;;;;;;;1.67;1.57;;;18.40;99.90;;;;;;5051238;28;20468;-69
2022/08/06 04:11:28;;;;;;;1.67;1.57;;;18.40;99.90;;;;;;5050426;28;20522;-68
2022/08/06 04:13:56;;;;;;;1.83;1.50;;;18.30;99.90;;;;;;5050602;28;20466;-68
2022/08/06 04:16:23;;;;;;;2.73;1.77;;;18.30;99.90;;;;;;5050425;28;20479;-69
2022/08/06 04:18:51;;;;;;;1.80;1.63;;;18.40;99.90;;;;;;5050845;28;21197;-69
2022/08/06 04:21:21;;;;;;;4.23;1.70;;;18.40;99.90;;;;;;5050933;28;20468;-68
2022/08/06 04:23:48;;;;;;;1.97;1.33;;;18.40;99.90;;;;;;5049803;28;21221;-69
2022/08/06 04:26:19;;;;;;;5.73;2.10;;;18.40;99.90;;;;;;5050740;28;20878;-68
2022/08/06 04:28:50;;;;;;;1.53;1.43;;;18.40;99.90;;;;;;5050019;28;21002;-68
2022/08/06 04:31:19;;;;;;;3.30;1.87;;;18.40;99.90;;;;;;5050856;28;20491;-68
2022/08/06 04:33:47;;;;;;;1.60;1.50;;;18.40;99.90;;;;;;5049513;28;20468;-68
2022/08/06 04:36:14;;;;;;;1.70;1.40;;;18.40;99.90;;;;;;5050581;28;20492;-68
2022/08/06 04:38:41;;;;;;;2.23;1.90;;;18.40;99.90;;;;;;5049403;28;20851;-68
2022/08/06 04:41:08;;;;;;;2.60;1.40;;;18.40;99.90;;;;;;5050666;28;20465;-68
2022/08/06 04:43:37;;;;;;;1.67;1.57;;;18.40;99.90;;;;;;5049539;28;20904;-68
2022/08/06 04:46:04;;;;;;;1.50;1.40;;;18.40;99.90;;;;;;5050316;28;20480;-68
2022/08/06 04:48:31;;;;;;;2.00;1.60;;;18.40;99.90;;;;;;5049361;28;20497;-68
2022/08/06 04:50:58;;;;;;;3.23;1.70;;;18.40;99.90;;;;;;5050314;28;20471;-68
2022/08/06 04:53:25;;;;;;;2.80;1.70;;;18.40;99.90;;;;;;5049319;28;20963;-68
2022/08/06 04:55:52;;;;;;;2.30;1.67;;;18.30;99.90;;;;;;5050176;28;20460;-68
2022/08/06 04:58:19;;;;;;;2.10;1.90;;;18.30;99.90;;;;;;5049883;28;20464;-68
2022/08/06 05:00:48;;;;;;;1.67;1.57;;;18.30;99.90;;;;;;5049853;28;20892;-68
2022/08/06 05:03:15;;;;;;;1.50;1.40;;;18.30;99.90;;;;;;5049827;28;20480;-68
2022/08/06 05:05:47;;;;;;;1.63;1.53;;;18.30;99.90;;;;;;5049081;28;20468;-68
2022/08/06 05:08:15;;;;;;;2.27;1.40;;;18.30;99.90;;;;;;5049672;28;20514;-68
2022/08/06 05:10:52;;;;;;;2.30;1.60;;;18.30;99.90;;;;;;5049588;28;21090;-68
2022/08/06 05:13:21;;;;;;;2.63;2.13;;;18.30;99.90;;;;;;5049574;28;20484;-68
2022/08/06 05:15:54;;;;;;;2.33;1.70;;;18.30;99.90;;;;;;5049656;28;20826;-68
2022/08/06 05:18:22;;;;;;;1.70;1.60;;;18.30;99.90;;;;;;5049081;28;20491;-68
2022/08/06 05:20:52;;;;;;;2.70;1.70;;;18.30;99.90;;;;;;5049835;28;20463;-68
2022/08/06 05:23:21;;;;;;;1.67;1.57;;;18.20;99.90;;;;;;5049484;28;20998;-69
2022/08/06 05:25:49;;;;;;;2.03;1.63;;;18.30;99.90;;;;;;5049416;28;20543;-68
2022/08/06 05:28:15;;;;;;;1.50;1.40;;;18.30;99.90;;;;;;5049572;28;21014;-68
2022/08/06 05:30:44;;;;;;;1.70;1.60;;;18.30;99.90;;;;;;5049161;28;20850;-68
2022/08/06 05:33:12;;;;;;;2.47;1.37;;;18.30;99.90;;;;;;5050006;28;20468;-68
2022/08/06 05:35:39;;;;;;;1.90;1.70;;;18.30;99.90;;;;;;5048185;28;20480;-68
2022/08/06 05:38:05;;;;;;;5.70;1.70;;;18.20;99.90;;;;;;5049765;28;20475;-68
2022/08/06 05:40:35;;;;;;;1.60;1.50;;;18.20;99.90;;;;;;5048927;28;20468;-68
2022/08/06 05:43:01;;;;;;;1.67;1.57;;;18.30;99.90;;;;;;5049567;28;20466;-67
2022/08/06 05:45:28;;;;;;;1.67;1.57;;;18.30;99.90;;;;;;5048616;28;20484;-68
2022/08/06 05:47:56;;;;;;;1.80;1.70;;;18.30;99.90;;;;;;5049507;28;20484;-68
2022/08/06 05:50:30;;;;;;;1.73;1.60;;;18.30;99.90;;;;;;5049175;28;20471;-68
2022/08/06 05:53:01;;;;;;;2.33;1.43;;;18.30;99.90;;;;;;5050040;28;20471;-69
2022/08/06 05:55:32;;;;;;;1.73;1.47;;;18.40;99.90;;;;;;5047881;28;20467;-68
2022/08/06 05:58:03;;;;;;;1.87;1.60;;;18.40;99.90;;;;;;5049356;28;20487;-68
2022/08/06 06:00:32;;;;;;;2.20;2.00;;;18.40;99.90;;;;;;5048971;28;20461;-69
2022/08/06 06:03:02;;;;;;;2.03;1.47;;;18.40;99.90;;;;;;5049664;28;20460;-69
2022/08/06 06:05:30;;;;;;;1.93;1.53;;;18.30;99.90;;;;;;5048007;28;21030;-68
2022/08/06 06:07:57;;;;;;;2.33;1.70;;;18.30;99.90;;;;;;5049569;28;20483;-68
2022/08/06 06:10:25;;;;;;;1.53;1.43;;;18.40;99.90;;;;;;5052812;28;20471;-69
2022/08/06 06:12:53;;;;;;;2.23;1.83;;;18.40;99.90;;;;;;5047026;28;20464;-68
2022/08/06 06:15:20;;;;;;;2.50;1.63;;;18.40;99.90;;;;;;5049321;28;20467;-69
2022/08/06 06:18:00;;;;;;;1.73;1.63;;;18.40;99.90;;;;;;5063073;28;21049;-68
2022/08/06 06:20:50;;;;;;;2.40;1.80;;;18.30;99.90;;;;;;5046925;28;20469;-69
2022/08/06 06:23:32;;;;;;;3.03;2.07;;;18.30;99.90;;;;;;5048318;28;20472;-68
2022/08/06 06:26:04;;;;;;;1.90;1.70;;;18.40;99.90;;;;;;5047741;28;21022;-69
2022/08/06 06:28:34;;;;;;;1.90;1.37;;;18.50;99.90;;;;;;5047059;28;20979;-68
2022/08/06 06:31:08;;;;;;;2.40;2.20;;;18.50;99.90;;;;;;5052300;28;20470;-68
2022/08/06 06:33:42;;;;;;;2.07;1.70;;;18.60;99.90;;;;;;5050280;28;20559;-68
2022/08/06 06:36:21;;;;;;;3.07;2.10;;;18.60;99.90;;;;;;5050473;28;20487;-69
2022/08/06 06:38:58;;;;;;;1.80;1.70;;;18.60;99.90;;;;;;5050163;28;20468;-69
2022/08/06 06:41:33;;;;;;;1.73;1.63;;;18.60;99.90;;;;;;5050108;28;20978;-68
2022/08/06 06:44:06;;;;;;;2.07;1.97;;;18.60;99.90;;;;;;5050293;28;20490;-68
2022/08/06 06:46:39;;;;;;;2.37;1.70;;;18.70;99.90;;;;;;5049583;28;20869;-67
2022/08/06 06:49:12;;;;;;;2.13;1.93;;;18.80;99.90;;;;;;5050270;28;20555;-68
2022/08/06 06:51:44;;;;;;;4.83;1.90;;;18.80;99.90;;;;;;5049372;28;20674;-69
2022/08/06 06:54:17;;;;;;;2.47;2.27;;;18.80;99.90;;;;;;5050198;28;20460;-68
2022/08/06 06:56:48;;;;;;;2.35;2.10;;;18.80;99.90;;;;;;5049155;28;20460;-68
2022/08/06 06:59:19;;;;;;;2.27;2.07;;;18.90;99.90;;;;;;5050000;28;20260;-67
2022/08/06 07:01:49;;;;;;;2.33;2.08;;;19.00;99.90;;;;;;5048839;28;20460;-67
2022/08/06 07:04:18;;;;;;;1.90;1.70;;;19.00;99.90;;;;;;5070054;28;20225;-67
2022/08/06 07:06:48;;;;;;;2.07;1.90;;;19.00;99.90;;;;;;5069851;28;20487;-67
2022/08/06 07:09:25;;;;;;;2.20;2.00;;;19.10;99.90;;;;;;5070814;28;20467;-67
2022/08/06 07:11:56;;;;;;;2.40;1.90;;;19.20;99.90;;;;;;5070916;28;20482;-67
2022/08/06 07:14:24;;;;;;;2.17;1.97;;;19.30;99.90;;;;;;5057595;28;20833;-67
2022/08/06 07:16:55;;;;;;;2.70;2.03;;;19.30;99.90;;;;;;5048433;28;20481;-67
2022/08/06 07:19:23;;;;;;;2.00;1.90;;;19.20;99.90;;;;;;5051418;28;20468;-67
2022/08/06 07:21:52;;;;;;;2.43;1.93;;;19.20;99.90;;;;;;5050820;28;20468;-67
2022/08/06 07:24:21;;;;;;;2.50;2.30;;;19.20;99.90;;;;;;5050570;28;20573;-67
2022/08/06 07:26:50;;;;;;;2.60;1.90;;;19.20;99.90;;;;;;5050721;28;20495;-67
2022/08/06 07:29:18;;;;;;;2.10;1.90;;;19.20;99.90;;;;;;5050958;28;20463;-67
2022/08/06 07:31:46;;;;;;;2.10;2.00;;;19.30;99.90;;;;;;5051153;28;20463;-67
2022/08/06 07:34:14;;;;;;;2.30;1.87;;;19.30;99.90;;;;;;5050655;28;20935;-67
2022/08/06 07:36:47;;;;;;;2.97;2.20;;;19.40;99.90;;;;;;5050411;28;20496;-68
2022/08/06 07:39:21;;;;;;;4.07;2.10;;;19.40;99.90;;;;;;5051050;28;20472;-68
2022/08/06 07:41:50;;;;;;;2.40;2.20;;;19.40;99.90;;;;;;5051231;28;20471;-68
2022/08/06 07:44:17;;;;;;;2.40;2.17;;;19.50;99.90;;;;;;5050562;28;20534;-67
2022/08/06 07:46:50;;;;;;;2.20;2.00;;;19.50;99.90;;;;;;5051043;28;20492;-68
2022/08/06 07:49:20;;;;;;;2.03;1.93;;;19.60;99.90;;;;;;5051183;28;20452;-68
2022/08/06 07:51:50;;;;;;;3.13;1.73;;;19.70;99.90;;;;;;5050051;28;20460;-67
2022/08/06 07:54:20;;;;;;;3.00;2.60;;;19.80;99.90;;;;;;5050539;28;20550;-68
2022/08/06 07:56:47;;;;;;;2.23;2.00;;;19.80;99.90;;;;;;5050705;28;20483;-67
2022/08/06 07:59:18;;;;;;;2.50;2.30;;;19.90;99.90;;;;;;5051111;28;20533;-67
2022/08/06 08:01:45;;;;;;;2.27;2.07;;;19.90;99.90;;;;;;5050167;28;21268;-68
2022/08/06 08:07:00;;;;;;;1.87;1.77;;;19.80;99.90;;;;;;5050484;28;20459;-67
2022/08/06 08:09:30;;;;;;;2.10;1.90;;;19.80;99.90;;;;;;5050423;28;20468;-67
2022/08/06 08:11:58;;;;;;;2.30;2.10;;;19.80;99.90;;;;;;5050564;28;20521;-68
2022/08/06 08:14:26;;;;;;;2.10;1.90;;;19.80;99.90;;;;;;5050495;28;20460;-65
2022/08/06 08:16:53;;;;;;;3.60;2.20;;;19.90;99.90;;;;;;5049916;28;20575;-67
2022/08/06 08:19:27;;;;;;;2.57;2.37;;;20.00;99.90;;;;;;5050846;28;20460;-65
2022/08/06 08:21:56;;;;;;;2.20;2.00;;;19.90;99.90;;;;;;5050168;28;20464;-66
2022/08/06 08:24:23;;;;;;;2.40;2.20;;;20.00;99.90;;;;;;5048661;28;20484;-66
2022/08/06 08:26:51;;;;;;;2.70;2.30;;;20.00;99.90;;;;;;5047659;28;20551;-67
2022/08/06 08:29:18;;;;;;;2.47;2.27;;;20.00;99.90;;;;;;5049338;28;20551;-66
2022/08/06 08:31:45;;;;;;;1.83;1.57;;;19.90;99.90;;;;;;5047979;28;21014;-65
2022/08/06 08:34:12;;;;;;;1.90;1.80;;;19.80;99.90;;;;;;5068794;28;20467;-66
2022/08/06 08:36:39;;;;;;;3.20;2.20;;;19.70;99.90;;;;;;5063570;28;20491;-67
2022/08/06 08:39:06;;;;;;;2.00;1.90;;;19.70;99.90;;;;;;5067682;28;21005;-67
2022/08/06 08:41:36;;;;;;;2.30;2.10;;;19.60;99.90;;;;;;5069319;28;20474;-66
2022/08/06 08:44:06;;;;;;;2.03;1.67;;;19.70;99.90;;;;;;5067852;28;20467;-67
2022/08/06 08:46:40;;;;;;;1.87;1.70;;;19.70;99.90;;;;;;5065841;28;20487;-66
2022/08/06 08:49:08;;;;;;;2.73;1.80;;;19.70;99.90;;;;;;5070212;28;20467;-66
2022/08/06 08:51:39;;;;;;;2.13;1.93;;;19.70;99.90;;;;;;5065356;28;20558;-66
2022/08/06 08:54:08;;;;;;;2.53;2.33;;;19.60;99.90;;;;;;5068358;28;20710;-66
2022/08/06 08:56:37;;;;;;;1.60;1.50;;;19.60;99.90;;;;;;5049901;28;20484;-66
2022/08/06 08:59:07;;;;;;;2.90;1.93;;;19.50;99.90;;;;;;5067679;28;20459;-66
2022/08/06 09:01:34;;;;;;;2.23;2.13;;;19.60;99.90;;;;;;5067407;28;20451;-66
2022/08/06 09:04:04;;;;;;;2.40;2.07;;;19.60;99.90;;;;;;5053678;28;20467;-66
2022/08/06 09:06:35;;;;;;;2.10;1.90;;;19.60;99.90;;;;;;5053437;28;20570;-65
2022/08/06 09:09:03;;;;;;;2.10;1.90;;;19.70;99.90;;;;;;5068878;28;20470;-66
2022/08/06 09:11:31;;;;;;;2.53;1.80;;;19.80;99.90;;;;;;5068059;28;20503;-66
2022/08/06 09:14:01;;;;;;;1.70;1.60;;;19.90;99.90;;;;;;5067932;28;20539;-64
2022/08/06 09:16:34;;;;;;;1.93;1.63;;;20.10;99.90;;;;;;5067485;28;20475;-66
2022/08/06 09:19:02;;;;;;;2.47;1.93;;;20.30;99.90;;;;;;5069199;28;20482;-65
2022/08/06 09:21:29;;;;;;;1.93;1.67;;;20.40;99.90;;;;;;5067883;28;20463;-65
2022/08/06 09:23:57;;;;;;;2.70;1.90;;;20.40;99.90;;;;;;5067700;28;20471;-64
2022/08/06 09:26:24;;;;;;;4.07;1.90;;;20.40;99.90;;;;;;5067912;28;20899;-65
2022/08/06 09:28:51;;;;;;;1.80;1.70;;;20.50;99.90;;;;;;5052597;28;20846;-65
2022/08/06 09:31:20;;;;;;;2.10;1.90;;;20.50;99.90;;;;;;5047715;28;20971;-66
2022/08/06 09:33:57;;;;;;;2.70;2.27;;;20.60;99.90;;;;;;5047395;28;20467;-66
2022/08/06 09:36:24;;;;;;;2.57;1.80;;;20.80;99.90;;;;;;5026698;28;20489;-65
2022/08/06 09:38:52;;;;;;;2.33;1.70;;;20.90;99.90;;;;;;5028060;28;20476;-66
2022/08/06 09:41:21;;;;;;;2.20;2.00;;;20.90;99.90;;;;;;5045645;28;20464;-65
2022/08/06 09:43:49;;;;;;;3.50;2.13;;;20.90;99.90;;;;;;5047249;28;20977;-65
2022/08/06 09:46:17;;;;;;;2.53;2.30;;;20.80;99.90;;;;;;5047383;28;20493;-65
2022/08/06 09:48:59;;;;;;;2.07;1.90;;;20.70;99.90;;;;;;5047813;28;20468;-66
2022/08/06 09:51:27;;;;;;;1.90;1.80;;;20.60;99.90;;;;;;5046952;28;20495;-64
2022/08/06 09:53:54;;;;;;;2.27;1.67;;;20.50;99.90;;;;;;5047186;28;20971;-66
2022/08/06 09:56:21;;;;;;;2.20;1.90;;;20.50;99.90;;;;;;5048189;28;20555;-66
2022/08/06 09:58:48;;;;;;;1.87;1.40;;;20.50;99.90;;;;;;5048255;28;20475;-65
2022/08/06 10:01:18;;;;;;;3.33;2.00;;;20.60;99.90;;;;;;5047029;28;20464;-66
2022/08/06 10:03:45;;;;;;;2.70;2.00;;;20.50;99.90;;;;;;5047365;28;20468;-65
2022/08/06 10:06:14;;;;;;;2.53;1.60;;;20.60;99.90;;;;;;5044810;28;20514;-66
2022/08/06 10:08:41;;;;;;;2.43;2.20;;;20.60;99.90;;;;;;5035255;28;20469;-64
2022/08/06 10:11:09;;;;;;;1.80;1.70;;;20.60;99.90;;;;;;5031869;28;20475;-67
2022/08/06 10:13:37;;;;;;;2.50;2.30;;;20.50;99.90;;;;;;5030952;28;21004;-66
2022/08/06 10:16:17;;;;;;;2.33;2.13;;;20.40;99.90;;;;;;5031058;28;20491;-67
2022/08/06 10:18:48;;;;;;;2.27;2.07;;;20.50;99.90;;;;;;5032341;28;20889;-66
2022/08/06 10:21:19;;;;;;;2.50;2.30;;;20.60;99.90;;;;;;5031907;28;20999;-67
2022/08/06 10:23:49;;;;;;;1.90;1.80;;;20.60;99.90;;;;;;5031970;28;20475;-65
2022/08/06 10:26:19;;;;;;;1.97;1.87;;;20.80;99.90;;;;;;5031308;28;20489;-67
2022/08/06 10:28:49;;;;;;;2.03;1.93;;;20.90;99.90;;;;;;5031048;28;20826;-67
2022/08/06 10:31:16;;;;;;;2.10;1.90;;;20.90;99.90;;;;;;5032751;28;20461;-66
2022/08/06 10:34:07;;;;;;;1.70;1.60;;;21.00;99.90;;;;;;5101332;23;20471;-93
2022/08/06 10:36:47;;;;;;;2.30;1.90;;;21.10;99.90;;;;;;5078219;28;20455;-92
2022/08/06 10:42:03;;;;;;;2.53;2.20;;;21.30;99.90;;;;;;5006698;28;20493;-68
2022/08/06 10:44:32;;;;;;;2.30;2.03;;;21.30;99.90;;;;;;5011490;28;20843;-68
2022/08/06 10:47:00;;;;;;;2.53;1.90;;;21.40;99.30;;;;;;4999789;28;20594;-68
2022/08/06 10:49:30;;;;;;;2.20;2.00;;;21.50;99.20;;;;;;4988829;28;20828;-68
2022/08/06 10:51:59;;;;;;;3.10;2.07;;;21.50;98.60;;;;;;4991991;28;20478;-68
2022/08/06 10:54:27;;;;;;;2.37;2.17;;;21.50;99.70;;;;;;4992267;28;20472;-68
2022/08/06 10:56:54;;;;;;;1.83;1.70;;;21.50;99.20;;;;;;4991518;28;20496;-68
2022/08/06 10:59:21;;;;;;;1.87;1.60;;;21.50;99.50;;;;;;4992808;28;20470;-69
2022/08/06 11:01:55;;;;;;;2.53;2.33;;;21.50;99.00;;;;;;4992581;28;20489;-69
2022/08/06 11:04:42;;;;;;;2.53;2.33;;;21.50;99.50;;;;;;4991740;28;20541;-68
2022/08/06 11:07:38;;;;;;;2.20;2.00;;;21.40;99.30;;;;;;4991643;28;20504;-68
2022/08/06 11:10:30;;;;;;;2.80;2.30;;;21.40;99.60;;;;;;4992069;28;20474;-68
2022/08/06 11:13:04;;;;;;;5.10;1.90;;;21.50;99.90;;;;;;4992407;28;20483;-69
2022/08/06 11:15:34;;;;;;;2.23;2.03;;;21.60;98.80;;;;;;4991460;28;20466;-68
2022/08/06 11:18:06;;;;;;;1.60;1.50;;;21.70;98.90;;;;;;4990933;28;20998;-70
2022/08/06 11:20:40;;;;;;;1.97;1.80;;;21.90;99.80;;;;;;4991691;28;20562;-69
2022/08/06 11:23:25;;;;;;;2.10;1.90;;;22.30;99.90;;;;;;4991908;28;20574;-68
2022/08/06 11:25:53;;;;;;;2.60;2.03;;;22.80;99.40;;;;;;4992236;28;20487;-69
2022/08/06 11:28:41;;;;;;;3.40;2.23;;;23.10;98.80;;;;;;4990742;28;21035;-69
2022/08/06 11:31:28;;;;;;;1.70;1.60;;;23.10;99.00;;;;;;4992018;28;20472;-69
2022/08/06 11:34:04;;;;;;;2.27;2.07;;;23.00;98.30;;;;;;4991114;28;20481;-70
2022/08/06 11:36:45;;;;;;;2.47;2.07;;;23.00;98.50;;;;;;4990395;28;20484;-69
2022/08/06 11:39:13;;;;;;;2.20;2.00;;;23.00;98.70;;;;;;4992421;28;20498;-66
2022/08/06 11:41:50;;;;;;;2.40;2.20;;;23.20;99.90;;;;;;4991409;28;20855;-67
2022/08/06 11:44:18;;;;;;;1.90;1.77;;;23.60;99.40;;;;;;4990410;28;20965;-67
2022/08/06 11:46:47;;;;;;;1.87;1.77;;;23.80;96.90;;;;;;4989983;28;20493;-67
2022/08/06 11:49:25;;;;;;;2.07;1.87;;;23.70;96.90;;;;;;4991642;28;20477;-66
2022/08/06 11:51:54;;;;;;;1.90;1.70;;;23.50;96.20;;;;;;4991320;28;20979;-67
2022/08/06 11:54:25;;;;;;;4.33;2.20;;;23.40;96.90;;;;;;4990736;28;20472;-67
2022/08/06 11:57:23;;;;;;;2.27;2.07;;;23.40;97.90;;;;;;4990683;28;20488;-67
2022/08/06 12:00:17;;;;;;;1.80;1.70;;;23.60;98.20;;;;;;4991743;28;20470;-68
2022/08/06 12:03:01;;;;;;;2.70;1.80;;;23.60;96.20;;;;;;4982879;28;20467;-66
2022/08/06 12:05:42;;;;;;;1.97;1.70;;;23.40;97.10;;;;;;4990203;28;20535;-67
2022/08/06 12:08:22;;;;;;;2.10;1.97;;;23.40;97.80;;;;;;4991487;28;20477;-67
2022/08/06 12:11:29;;;;;;;2.07;1.87;;;23.40;96.70;;;;;;4990730;28;20470;-67
2022/08/06 12:13:58;;;;;;;2.10;1.90;;;23.50;96.90;;;;;;4987602;28;20469;-65
2022/08/06 12:16:33;;;;;;;2.73;2.13;;;23.70;96.60;;;;;;4986625;28;20852;-67
2022/08/06 12:19:00;;;;;;;2.73;1.73;;;24.00;98.10;;;;;;4988332;28;20672;-66
2022/08/06 12:21:28;;;;;;;2.83;2.00;;;24.30;96.80;;;;;;4987600;28;20524;-67
2022/08/06 12:23:54;;;;;;;2.87;1.90;;;24.20;96.70;;;;;;4990024;28;20469;-65
2022/08/06 12:26:22;;;;;;;3.10;2.00;;;24.20;96.70;;;;;;4988539;28;20491;-66
2022/08/06 12:28:50;;;;;;;3.40;2.13;;;24.10;97.70;;;;;;4989394;28;20493;-65
2022/08/06 12:31:34;;;;;;;2.13;1.90;;;24.30;97.90;;;;;;4989097;28;20467;-66
2022/08/06 12:34:01;;;;;;;3.83;1.83;;;24.40;96.60;;;;;;4989188;28;20759;-67
2022/08/06 12:36:30;;;;;;;2.03;1.93;;;24.20;96.00;;;;;;4988811;28;20483;-67
2022/08/06 12:38:58;;;;;;;1.53;1.43;;;24.10;96.60;;;;;;4990294;28;20897;-67
2022/08/06 12:41:37;;;;;;;2.50;2.20;;;24.10;97.40;;;;;;4988448;28;20482;-67
2022/08/06 12:44:05;;;;;;;2.37;2.17;;;24.10;97.00;;;;;;4988509;28;20492;-68
2022/08/06 12:46:32;;;;;;;2.50;2.03;;;24.10;96.60;;;;;;4989395;28;20524;-66
2022/08/06 12:49:00;;;;;;;2.03;1.80;;;24.30;97.10;;;;;;4989537;28;20468;-68
2022/08/06 12:51:27;;;;;;;2.43;2.23;;;24.30;95.70;;;;;;4988555;28;20466;-67
2022/08/06 12:53:56;;;;;;;2.10;2.00;;;24.20;95.40;;;;;;4989162;28;20473;-68
2022/08/06 12:56:25;;;;;;;2.10;2.00;;;24.00;95.90;;;;;;4987855;28;21025;-67
2022/08/06 12:58:54;;;;;;;2.87;2.07;;;24.00;97.40;;;;;;4990052;28;20890;-68
2022/08/06 13:01:25;;;;;;;2.63;1.80;;;24.20;97.40;;;;;;4988893;28;20493;-68
2022/08/06 13:03:55;;;;;;;2.80;1.67;;;24.60;96.40;;;;;;4989386;28;20470;-68
2022/08/06 13:06:25;;;;;;;2.60;1.97;;;24.80;95.50;;;;;;4988030;28;20519;-68
2022/08/06 13:08:54;;;;;;;1.70;1.60;;;25.20;95.60;;;;;;4988899;28;20554;-68
2022/08/06 13:11:21;;;;;;;4.90;2.03;;;25.50;96.40;;;;;;4989105;28;20474;-68
2022/08/06 13:13:51;;;;;;;1.90;1.80;;;25.60;96.20;;;;;;4988450;28;20646;-69